createdAt,value
2022-12-29T00:01:12.629Z,102518.28
2022-12-29T00:03:41.639Z,102526.00
2022-12-29T00:06:09.908Z,102526.88
2022-12-29T00:08:42.427Z,102522.84
2022-12-29T00:11:13.860Z,102527.59
2022-12-29T00:14:03.200Z,102522.56
2022-12-29T00:16:35.507Z,102528.00
2022-12-29T00:19:07.995Z,102523.78
2022-12-29T00:21:59.343Z,102521.13
2022-12-29T00:24:28.151Z,102524.53
2022-12-29T00:27:25.141Z,102521.72
2022-12-29T00:30:15.424Z,102511.00
2022-12-29T00:33:03.288Z,102514.25
2022-12-29T00:35:39.539Z,102503.59
2022-12-29T00:38:29.696Z,102506.72
2022-12-29T00:41:17.066Z,102508.75
2022-12-29T00:44:07.763Z,102514.88
2022-12-29T00:46:37.890Z,102517.59
2022-12-29T00:49:29.066Z,102512.59
2022-12-29T00:52:00.453Z,102510.25
2022-12-29T00:54:32.545Z,102516.16
2022-12-29T00:57:09.830Z,102519.03
2022-12-29T00:59:44.438Z,102519.53
2022-12-29T01:02:13.827Z,102521.25
2022-12-29T01:04:42.728Z,102515.16
2022-12-29T01:07:14.067Z,102521.59
2022-12-29T01:10:01.615Z,102523.53
2022-12-29T01:12:43.452Z,102526.69
2022-12-29T01:15:15.229Z,102529.53
2022-12-29T01:17:45.052Z,102535.56
2022-12-29T01:20:15.161Z,102533.34
2022-12-29T01:22:46.173Z,102535.75
2022-12-29T01:25:14.655Z,102535.50
2022-12-29T01:27:44.188Z,102535.09
2022-12-29T01:30:15.352Z,102537.63
2022-12-29T01:32:44.368Z,102545.22
2022-12-29T01:35:16.736Z,102542.78
2022-12-29T01:37:46.829Z,102534.19
2022-12-29T01:40:16.381Z,102535.03
2022-12-29T01:42:46.678Z,102538.34
2022-12-29T01:45:18.708Z,102540.25
2022-12-29T01:47:54.603Z,102534.97
2022-12-29T01:50:42.692Z,102530.69
2022-12-29T01:53:17.604Z,102527.34
2022-12-29T01:56:01.412Z,102531.06
2022-12-29T01:58:37.785Z,102532.31
2022-12-29T02:01:10.182Z,102533.31
2022-12-29T02:03:41.720Z,102540.84
2022-12-29T02:06:26.521Z,102538.91
2022-12-29T02:09:05.535Z,102526.88
2022-12-29T02:11:38.022Z,102537.19
2022-12-29T02:14:12.216Z,102527.88
2022-12-29T02:17:17.082Z,102529.03
2022-12-29T02:20:19.241Z,102522.38
2022-12-29T02:23:17.933Z,102527.63
2022-12-29T02:26:44.189Z,102523.69
2022-12-29T02:29:26.523Z,102533.50
2022-12-29T02:32:07.763Z,102525.25
2022-12-29T02:35:17.425Z,102523.53
2022-12-29T02:38:04.894Z,102537.56
2022-12-29T02:41:07.416Z,102544.28
2022-12-29T02:44:00.248Z,102534.84
2022-12-29T02:46:35.421Z,102536.63
2022-12-29T02:49:42.664Z,102534.91
2022-12-29T02:52:19.739Z,102528.69
2022-12-29T02:54:50.617Z,102522.19
2022-12-29T02:57:26.106Z,102539.63
2022-12-29T03:00:17.010Z,102530.59
2022-12-29T03:03:24.314Z,102525.75
2022-12-29T03:06:29.461Z,102527.03
2022-12-29T03:09:03.819Z,102523.47
2022-12-29T03:12:07.327Z,102519.69
2022-12-29T03:15:13.328Z,102532.47
2022-12-29T03:17:42.370Z,102522.03
2022-12-29T03:20:22.224Z,102524.97
2022-12-29T03:22:55.617Z,102536.63
2022-12-29T03:25:34.952Z,102538.28
2022-12-29T03:28:09.902Z,102530.06
2022-12-29T03:30:43.278Z,102528.31
2022-12-29T03:33:23.853Z,102532.53
2022-12-29T03:35:59.060Z,102535.16
2022-12-29T03:39:16.176Z,102531.91
2022-12-29T03:41:47.668Z,102528.47
2022-12-29T03:44:16.858Z,102532.66
2022-12-29T03:46:45.530Z,102536.09
2022-12-29T03:49:17.430Z,102538.06
2022-12-29T03:51:46.587Z,102522.13
2022-12-29T03:54:16.721Z,102531.31
2022-12-29T03:56:47.496Z,102531.38
2022-12-29T03:59:16.683Z,102526.34
2022-12-29T04:01:46.368Z,102526.00
2022-12-29T04:04:16.564Z,102523.47
2022-12-29T04:06:48.371Z,102530.53
2022-12-29T04:09:18.845Z,102525.81
2022-12-29T04:11:48.119Z,102529.25
2022-12-29T04:14:16.887Z,102528.16
2022-12-29T04:16:50.418Z,102533.28
2022-12-29T04:19:19.570Z,102524.94
2022-12-29T04:21:49.597Z,102523.91
2022-12-29T04:24:19.172Z,102519.63
2022-12-29T04:26:47.571Z,102518.03
2022-12-29T04:29:20.227Z,102509.44
2022-12-29T04:31:49.297Z,102513.16
2022-12-29T04:34:18.360Z,102505.59
2022-12-29T04:36:50.935Z,102503.13
2022-12-29T04:39:21.375Z,102509.38
2022-12-29T04:41:51.712Z,102512.00
2022-12-29T04:44:21.224Z,102519.53
2022-12-29T04:46:52.268Z,102521.59
2022-12-29T04:49:20.871Z,102518.59
2022-12-29T04:51:51.547Z,102520.41
2022-12-29T04:54:27.345Z,102519.59
2022-12-29T04:56:56.586Z,102523.03
2022-12-29T04:59:27.037Z,102525.75
2022-12-29T05:01:55.723Z,102523.75
2022-12-29T05:04:25.489Z,102525.47
2022-12-29T05:06:53.585Z,102531.84
2022-12-29T05:09:26.815Z,102532.25
2022-12-29T05:11:55.593Z,102526.09
2022-12-29T05:14:23.469Z,102527.28
2022-12-29T05:16:52.716Z,102530.19
2022-12-29T05:19:21.621Z,102524.25
2022-12-29T05:21:52.210Z,102529.59
2022-12-29T05:24:22.012Z,102527.75
2022-12-29T05:26:50.581Z,102540.59
2022-12-29T05:29:22.514Z,102531.91
2022-12-29T05:31:50.589Z,102536.34
2022-12-29T05:34:22.796Z,102525.16
2022-12-29T05:36:58.402Z,102532.03
2022-12-29T05:39:32.220Z,102524.59
2022-12-29T05:42:11.540Z,102543.78
2022-12-29T05:44:41.476Z,102543.38
2022-12-29T05:47:12.213Z,102538.91
2022-12-29T05:49:44.442Z,102534.84
2022-12-29T05:52:12.069Z,102538.41
2022-12-29T05:54:41.128Z,102534.56
2022-12-29T05:57:10.202Z,102528.75
2022-12-29T05:59:40.908Z,102527.47
2022-12-29T06:02:15.490Z,102523.66
2022-12-29T06:04:46.970Z,102529.03
2022-12-29T06:07:15.518Z,102524.31
2022-12-29T06:09:45.181Z,102535.91
2022-12-29T06:12:16.343Z,102545.56
2022-12-29T06:14:44.189Z,102548.91
2022-12-29T06:17:21.324Z,102551.97
2022-12-29T06:19:51.165Z,102549.72
2022-12-29T06:22:19.636Z,102545.84
2022-12-29T06:24:50.294Z,102551.16
2022-12-29T06:27:21.640Z,102548.44
2022-12-29T06:29:51.196Z,102555.88
2022-12-29T06:32:21.860Z,102558.41
2022-12-29T06:34:51.613Z,102563.50
2022-12-29T06:37:23.361Z,102573.81
2022-12-29T06:39:55.613Z,102569.66
2022-12-29T06:42:25.536Z,102578.88
2022-12-29T06:44:56.190Z,102579.19
2022-12-29T06:47:25.731Z,102579.09
2022-12-29T06:49:54.475Z,102567.13
2022-12-29T06:52:25.817Z,102571.13
2022-12-29T06:54:54.636Z,102578.31
2022-12-29T06:57:25.087Z,102574.72
2022-12-29T06:59:56.957Z,102586.25
2022-12-29T07:02:28.047Z,102576.00
2022-12-29T07:04:56.650Z,102583.75
2022-12-29T07:07:28.696Z,102577.00
2022-12-29T07:09:56.860Z,102572.28
2022-12-29T07:12:26.636Z,102581.06
2022-12-29T07:14:54.327Z,102579.69
2022-12-29T07:17:23.425Z,102569.69
2022-12-29T07:19:51.460Z,102579.97
2022-12-29T07:22:21.183Z,102584.19
2022-12-29T07:24:52.140Z,102585.91
2022-12-29T07:27:20.901Z,102592.28
2022-12-29T07:29:48.592Z,102590.19
2022-12-29T07:32:20.872Z,102589.72
2022-12-29T07:34:52.036Z,102594.00
2022-12-29T07:37:21.244Z,102594.63
2022-12-29T07:39:49.509Z,102596.00
2022-12-29T07:42:21.312Z,102597.81
2022-12-29T07:44:50.770Z,102608.44
2022-12-29T07:47:20.047Z,102602.94
2022-12-29T07:49:51.492Z,102607.38
2022-12-29T07:52:21.722Z,102606.44
2022-12-29T07:54:59.823Z,102604.44
2022-12-29T07:57:38.035Z,102604.53
2022-12-29T08:00:21.709Z,102598.88
2022-12-29T08:02:55.356Z,102591.69
2022-12-29T08:05:26.198Z,102579.34
2022-12-29T08:08:05.259Z,102578.91
2022-12-29T08:10:37.062Z,102569.66
2022-12-29T08:13:15.020Z,102558.31
2022-12-29T08:15:51.798Z,102550.44
2022-12-29T08:18:23.869Z,102550.53
2022-12-29T08:20:58.577Z,102549.47
2022-12-29T08:23:27.425Z,102545.56
2022-12-29T08:26:00.716Z,102543.03
2022-12-29T08:28:30.269Z,102545.69
2022-12-29T08:31:06.668Z,102540.19
2022-12-29T08:36:47.239Z,102531.41
2022-12-29T09:29:42.776Z,102515.31
2022-12-29T09:32:18.518Z,102517.38
2022-12-29T09:34:49.744Z,102512.94
2022-12-29T09:37:20.782Z,102519.22
2022-12-29T09:39:54.059Z,102512.19
2022-12-29T09:42:49.657Z,102520.56
2022-12-29T09:46:09.067Z,102513.09
2022-12-29T09:48:48.207Z,102494.53
2022-12-29T09:51:24.315Z,102494.97
2022-12-29T09:54:23.113Z,102497.78
2022-12-29T09:56:54.314Z,102494.84
2022-12-29T09:59:38.352Z,102494.69
2022-12-29T10:02:31.322Z,102501.31
2022-12-29T10:05:04.002Z,102503.00
2022-12-29T10:08:12.488Z,102500.44
2022-12-29T10:11:04.521Z,102497.63
2022-12-29T10:14:21.586Z,102492.91
2022-12-29T10:17:10.658Z,102504.84
2022-12-29T10:20:06.267Z,102506.13
2022-12-29T10:22:59.324Z,102500.63
2022-12-29T10:25:34.499Z,102505.75
2022-12-29T10:28:31.798Z,102487.44
2022-12-29T10:31:08.561Z,102496.66
2022-12-29T10:33:43.139Z,102494.19
2022-12-29T10:36:53.870Z,102486.50
2022-12-29T10:39:56.527Z,102476.34
2022-12-29T10:42:39.547Z,102477.34
2022-12-29T10:45:18.175Z,102482.69
2022-12-29T10:47:59.675Z,102471.34
2022-12-29T10:50:30.574Z,102472.41
2022-12-29T10:53:07.509Z,102471.16
2022-12-29T10:55:47.006Z,102467.19
2022-12-29T10:58:18.682Z,102464.78
2022-12-29T11:00:59.895Z,102469.59
2022-12-29T11:04:01.981Z,102461.09
2022-12-29T11:06:44.944Z,102461.81
2022-12-29T11:09:21.060Z,102456.06
2022-12-29T11:11:52.971Z,102462.78
2022-12-29T11:14:32.905Z,102460.53
2022-12-29T11:17:06.207Z,102459.09
2022-12-29T11:19:45.034Z,102458.66
2022-12-29T11:22:30.970Z,102455.72
2022-12-29T11:25:15.808Z,102445.81
2022-12-29T11:28:22.864Z,102441.63
2022-12-29T11:31:07.114Z,102442.75
2022-12-29T11:33:42.389Z,102434.38
2022-12-29T11:36:21.575Z,102443.03
2022-12-29T11:38:56.800Z,102431.94
2022-12-29T11:41:29.832Z,102430.13
2022-12-29T11:44:08.778Z,102419.38
2022-12-29T11:46:40.314Z,102419.69
2022-12-29T11:49:21.390Z,102411.22
2022-12-29T11:51:55.143Z,102402.09
2022-12-29T11:54:39.178Z,102412.97
2022-12-29T11:57:20.279Z,102410.66
2022-12-29T12:00:05.583Z,102412.94
2022-12-29T12:03:06.212Z,102399.47
2022-12-29T12:05:46.732Z,102399.38
2022-12-29T12:08:41.789Z,102387.91
2022-12-29T12:11:46.269Z,102391.66
2022-12-29T12:15:08.179Z,102397.75
2022-12-29T12:17:57.212Z,102395.03
2022-12-29T12:21:08.259Z,102399.47
2022-12-29T12:23:58.751Z,102402.69
2022-12-29T12:27:10.053Z,102398.84
2022-12-29T12:30:28.392Z,102383.00
2022-12-29T12:33:07.366Z,102393.00
2022-12-29T12:36:07.873Z,102379.84
2022-12-29T12:39:03.844Z,102388.00
2022-12-29T12:41:49.117Z,102388.50
2022-12-29T12:45:12.377Z,102391.28
2022-12-29T12:47:59.694Z,102380.78
2022-12-29T12:50:55.529Z,102383.78
2022-12-29T12:54:09.701Z,102373.56
2022-12-29T12:57:15.623Z,102363.13
2022-12-29T13:00:21.513Z,102374.84
2022-12-29T13:06:20.787Z,102371.94
2022-12-29T13:09:28.810Z,102366.06
2022-12-29T13:12:42.472Z,102366.75
2022-12-29T13:15:59.801Z,102360.25
2022-12-29T13:18:38.137Z,102355.84
2022-12-29T13:21:32.999Z,102368.41
2022-12-29T13:24:26.161Z,102365.63
2022-12-29T13:27:19.560Z,102362.41
2022-12-29T13:30:19.823Z,102362.41
2022-12-29T13:33:04.550Z,102367.75
2022-12-29T13:36:12.960Z,102365.22
2022-12-29T13:38:50.011Z,102370.19
2022-12-29T13:41:48.951Z,102366.69
2022-12-29T13:44:45.029Z,102369.72
2022-12-29T13:47:40.689Z,102368.19
2022-12-29T13:50:18.897Z,102366.38
2022-12-29T13:53:29.878Z,102379.88
2022-12-29T13:56:09.226Z,102381.78
2022-12-29T13:59:14.932Z,102370.47
2022-12-29T14:05:20.933Z,102348.84
2022-12-29T14:07:50.581Z,102357.91
2022-12-29T14:10:40.209Z,102356.19
2022-12-29T14:13:21.985Z,102361.22
2022-12-29T14:15:59.488Z,102366.22
2022-12-29T14:18:48.396Z,102365.25
2022-12-29T14:21:30.466Z,102361.72
2022-12-29T14:24:41.371Z,102371.28
2022-12-29T14:27:13.329Z,102373.22
2022-12-29T14:29:40.923Z,102369.78
2022-12-29T14:32:25.878Z,102374.59
2022-12-29T14:34:59.951Z,102367.47
2022-12-29T14:37:43.336Z,102369.59
2022-12-29T14:40:28.528Z,102373.88
2022-12-29T14:43:14.018Z,102373.41
2022-12-29T14:45:51.187Z,102368.16
2022-12-29T14:48:45.576Z,102363.38
2022-12-29T14:51:48.075Z,102362.44
2022-12-29T14:54:48.205Z,102348.47
2022-12-29T14:57:31.367Z,102351.91
2022-12-29T15:00:30.950Z,102359.38
2022-12-29T15:03:14.034Z,102357.50
2022-12-29T15:06:10.286Z,102357.31
2022-12-29T15:08:53.756Z,102356.75
2022-12-29T15:11:53.179Z,102358.69
2022-12-29T15:14:32.923Z,102364.28
2022-12-29T15:17:26.276Z,102360.16
2022-12-29T15:20:01.976Z,102360.97
2022-12-29T15:22:31.868Z,102368.88
2022-12-29T15:25:01.872Z,102374.44
2022-12-29T15:27:41.512Z,102373.94
2022-12-29T15:30:18.054Z,102369.53
2022-12-29T15:32:50.213Z,102375.94
2022-12-29T15:35:38.973Z,102384.88
2022-12-29T15:38:30.335Z,102391.59
2022-12-29T15:41:22.984Z,102387.22
2022-12-29T15:44:18.554Z,102392.59
2022-12-29T15:47:12.367Z,102393.44
2022-12-29T15:49:45.082Z,102400.19
2022-12-29T15:52:20.390Z,102388.50
2022-12-29T15:54:57.773Z,102399.78
2022-12-29T15:57:37.651Z,102387.66
2022-12-29T16:00:35.117Z,102390.47
2022-12-29T16:03:18.436Z,102399.44
2022-12-29T16:05:54.398Z,102388.44
2022-12-29T16:09:00.430Z,102386.38
2022-12-29T16:11:55.078Z,102388.16
2022-12-29T16:14:46.678Z,102371.44
2022-12-29T16:17:25.985Z,102382.38
2022-12-29T16:20:04.426Z,102380.38
2022-12-29T16:22:52.738Z,102389.13
2022-12-29T16:25:27.014Z,102386.84
2022-12-29T19:53:15.082Z,102230.63
2022-12-29T19:55:54.956Z,102226.03
2022-12-29T19:58:28.907Z,102228.53
2022-12-29T20:04:05.617Z,102217.78
2022-12-29T20:06:39.568Z,102221.25
2022-12-29T20:09:11.695Z,102219.72
2022-12-29T20:11:48.963Z,102225.72
2022-12-29T20:14:32.548Z,102230.19
2022-12-29T20:17:32.562Z,102232.31
2022-12-29T20:20:09.517Z,102222.94
2022-12-29T20:28:33.515Z,102234.50
2022-12-29T20:31:18.198Z,102229.59
2022-12-29T20:34:01.396Z,102230.88
2022-12-29T20:39:20.231Z,102237.25
2022-12-29T20:41:58.875Z,102223.69
2022-12-29T20:44:42.072Z,102228.16
2022-12-29T20:47:12.043Z,102235.63
2022-12-29T20:49:54.044Z,102214.66
2022-12-29T20:52:22.396Z,102220.19
2022-12-29T20:54:53.198Z,102214.31
2022-12-29T20:57:23.102Z,102220.75
2022-12-29T21:02:44.011Z,102221.16
2022-12-29T21:05:23.774Z,102224.69
2022-12-29T21:07:53.375Z,102230.09
2022-12-29T21:10:23.985Z,102226.94
2022-12-29T21:12:51.679Z,102222.00
2022-12-29T21:15:19.870Z,102217.25
2022-12-29T21:17:48.954Z,102222.47
2022-12-29T21:20:20.598Z,102218.81
2022-12-29T21:22:50.210Z,102216.06
2022-12-29T21:25:24.775Z,102225.03
2022-12-29T21:27:54.791Z,102226.53
2022-12-29T21:30:28.504Z,102224.06
2022-12-29T21:35:47.980Z,102213.16
2022-12-29T21:38:18.685Z,102216.00
2022-12-29T21:40:48.098Z,102215.06
2022-12-29T21:43:18.103Z,102224.00
2022-12-29T21:45:53.376Z,102224.56
2022-12-29T21:48:36.099Z,102222.50
2022-12-29T21:51:30.721Z,102222.50
2022-12-29T21:54:21.091Z,102217.63
2022-12-29T21:56:52.348Z,102223.78
2022-12-29T21:59:43.092Z,102221.25
2022-12-29T22:24:24.660Z,102199.28
2022-12-29T22:26:58.430Z,102198.88
2022-12-29T22:29:37.379Z,102196.53
2022-12-29T22:32:06.569Z,102199.50
2022-12-29T22:34:35.759Z,102194.19
2022-12-29T22:37:04.373Z,102201.34
2022-12-29T22:39:32.676Z,102197.81
2022-12-29T22:42:00.295Z,102194.41
2022-12-29T22:44:28.017Z,102184.38
2022-12-29T22:46:55.942Z,102195.00
2022-12-29T22:49:23.792Z,102193.09
2022-12-29T22:51:52.081Z,102185.66
2022-12-29T22:54:20.421Z,102185.44
2022-12-29T22:56:48.410Z,102191.00
2022-12-29T22:59:16.964Z,102196.72
2022-12-29T23:01:45.027Z,102191.84
2022-12-29T23:04:59.336Z,102207.81
2022-12-29T23:07:01.034Z,102195.34
2022-12-29T23:09:29.536Z,102201.34
2022-12-29T23:11:57.722Z,102193.44
2022-12-29T23:14:25.639Z,102190.78
2022-12-29T23:16:53.788Z,102184.59
2022-12-29T23:19:21.579Z,102189.06
2022-12-29T23:21:49.215Z,102182.22
2022-12-29T23:24:17.015Z,102182.66
2022-12-29T23:26:46.941Z,102185.66
2022-12-29T23:29:19.784Z,102193.97
2022-12-29T23:31:48.331Z,102187.56
2022-12-29T23:34:17.272Z,102179.47
2022-12-29T23:36:45.448Z,102191.44
2022-12-29T23:39:20.721Z,102195.91
2022-12-29T23:41:48.547Z,102194.59
2022-12-29T23:44:16.417Z,102201.19
2022-12-29T23:46:44.348Z,102193.09
2022-12-29T23:49:12.086Z,102191.84
2022-12-29T23:51:40.328Z,102193.09
2022-12-29T23:54:07.876Z,102192.03
2022-12-29T23:56:36.070Z,102193.09
2022-12-29T23:59:05.526Z,102191.50
